createdAt,value
2019-04-03T00:01:34.065Z,98691.81
2019-04-03T00:04:07.139Z,98693.80
2019-04-03T00:06:39.710Z,98691.06
2019-04-03T00:09:12.754Z,98686.14
2019-04-03T00:11:47.090Z,98685.31
2019-04-03T00:14:21.417Z,98683.96
2019-04-03T00:16:54.129Z,98676.81
2019-04-03T00:19:27.689Z,98681.00
2019-04-03T00:22:01.548Z,98682.48
2019-04-03T00:24:34.974Z,98687.05
2019-04-03T00:27:07.486Z,98687.78
2019-04-03T00:29:40.315Z,98684.03
2019-04-03T00:32:13.305Z,98684.86
2019-04-03T00:34:45.902Z,98685.09
2019-04-03T00:37:21.530Z,98677.99
2019-04-03T00:39:56.570Z,98674.48
2019-04-03T00:42:29.149Z,98671.70
2019-04-03T00:45:03.649Z,98684.38
2019-04-03T00:47:36.236Z,98672.73
2019-04-03T00:50:08.778Z,98670.06
2019-04-03T00:52:42.919Z,98670.17
2019-04-03T00:55:15.970Z,98670.62
2019-04-03T00:57:49.551Z,98674.02
2019-04-03T01:00:22.839Z,98676.05
2019-04-03T01:02:58.140Z,98681.91
2019-04-03T01:05:31.322Z,98683.56
2019-04-03T01:08:04.788Z,98685.17
2019-04-03T01:10:37.293Z,98689.84
2019-04-03T01:13:09.899Z,98692.60
2019-04-03T01:15:43.675Z,98685.29
2019-04-03T01:18:16.238Z,98688.56
2019-04-03T01:20:48.822Z,98683.28
2019-04-03T01:23:21.656Z,98683.33
2019-04-03T01:25:54.230Z,98685.98
2019-04-03T01:28:26.766Z,98685.34
2019-04-03T01:30:59.631Z,98682.58
2019-04-03T01:33:32.352Z,98685.41
2019-04-03T01:36:05.020Z,98685.61
2019-04-03T01:38:38.950Z,98683.03
2019-04-03T01:41:11.791Z,98675.35
2019-04-03T01:43:44.971Z,98685.23
2019-04-03T01:46:17.715Z,98682.16
2019-04-03T01:48:53.944Z,98686.52
2019-04-03T01:51:27.745Z,98685.33
2019-04-03T01:54:06.141Z,98685.04
2019-04-03T01:56:39.094Z,98681.44
2019-04-03T01:59:13.095Z,98678.03
2019-04-03T02:01:49.152Z,98668.92
2019-04-03T02:04:21.772Z,98669.97
2019-04-03T02:06:54.720Z,98664.20
2019-04-03T02:09:27.278Z,98664.77
2019-04-03T02:11:59.908Z,98668.51
2019-04-03T02:14:33.938Z,98666.28
2019-04-03T02:17:06.406Z,98666.20
2019-04-03T02:19:39.005Z,98664.38
2019-04-03T02:22:11.825Z,98659.67
2019-04-03T02:24:44.473Z,98666.53
2019-04-03T02:27:16.943Z,98662.44
2019-04-03T02:29:54.243Z,98661.13
2019-04-03T02:32:27.078Z,98659.02
2019-04-03T02:34:59.658Z,98668.35
2019-04-03T02:37:32.375Z,98670.52
2019-04-03T02:40:06.539Z,98663.97
2019-04-03T02:42:41.237Z,98651.64
2019-04-03T02:45:16.901Z,98645.16
2019-04-03T02:47:49.463Z,98643.33
2019-04-03T02:50:26.502Z,98647.59
2019-04-03T02:52:59.555Z,98649.97
2019-04-03T02:55:32.301Z,98649.47
2019-04-03T02:58:06.984Z,98650.38
2019-04-03T03:00:39.515Z,98641.63
2019-04-03T03:03:12.037Z,98648.45
2019-04-03T03:05:45.352Z,98650.75
2019-04-03T03:08:18.225Z,98633.33
2019-04-03T03:10:52.931Z,98637.92
2019-04-03T03:13:27.120Z,98636.69
2019-04-03T03:16:00.319Z,98644.60
2019-04-03T03:18:33.386Z,98645.16
2019-04-03T03:21:07.348Z,98647.43
2019-04-03T03:23:40.587Z,98652.03
2019-04-03T03:26:13.404Z,98643.50
2019-04-03T03:28:47.923Z,98642.58
2019-04-03T03:31:44.432Z,98645.50
2019-04-03T03:34:51.492Z,98647.18
2019-04-03T03:37:28.619Z,98650.32
2019-04-03T03:40:02.259Z,98649.06
2019-04-03T03:42:35.920Z,98647.66
2019-04-03T03:45:10.521Z,98643.44
2019-04-03T03:47:45.143Z,98643.40
2019-04-03T03:50:26.261Z,98638.40
2019-04-03T03:52:59.643Z,98637.55
2019-04-03T03:55:34.368Z,98636.42
2019-04-03T03:58:11.058Z,98633.59
2019-04-03T04:00:51.173Z,98628.81
2019-04-03T04:03:24.876Z,98627.50
2019-04-03T04:05:58.081Z,98623.33
2019-04-03T04:08:31.284Z,98617.45
2019-04-03T04:11:03.846Z,98618.74
2019-04-03T04:13:37.869Z,98621.95
2019-04-03T04:16:10.605Z,98622.91
2019-04-03T04:18:43.402Z,98618.30
2019-04-03T04:21:18.069Z,98617.88
2019-04-03T04:23:50.985Z,98618.64
2019-04-03T04:26:23.786Z,98613.74
2019-04-03T04:28:56.893Z,98615.09
2019-04-03T04:31:29.926Z,98605.21
2019-04-03T04:34:04.157Z,98603.94
2019-04-03T04:36:37.743Z,98607.08
2019-04-03T04:39:12.424Z,98601.90
2019-04-03T04:41:46.960Z,98606.48
2019-04-03T04:44:20.327Z,98603.73
2019-04-03T04:46:52.980Z,98606.70
2019-04-03T04:49:26.646Z,98606.23
2019-04-03T04:52:01.677Z,98610.54
2019-04-03T04:54:35.218Z,98610.18
2019-04-03T04:57:09.518Z,98608.77
2019-04-03T04:59:44.319Z,98610.13
2019-04-03T05:02:19.743Z,98608.03
2019-04-03T05:04:53.907Z,98611.76
2019-04-03T05:07:30.826Z,98612.09
2019-04-03T05:10:05.885Z,98611.22
2019-04-03T05:12:42.652Z,98614.54
2019-04-03T05:15:19.557Z,98613.32
2019-04-03T05:17:54.208Z,98613.11
2019-04-03T05:20:26.869Z,98614.66
2019-04-03T05:23:01.159Z,98615.66
2019-04-03T05:25:34.000Z,98610.19
2019-04-03T05:28:06.670Z,98612.02
2019-04-03T05:30:39.759Z,98617.64
2019-04-03T05:33:13.073Z,98619.17
2019-04-03T05:35:48.192Z,98619.56
2019-04-03T05:38:22.500Z,98616.34
2019-04-03T05:40:56.491Z,98618.56
2019-04-03T05:43:31.095Z,98617.09
2019-04-03T05:46:06.357Z,98618.49
2019-04-03T05:48:39.010Z,98626.72
2019-04-03T05:51:11.929Z,98623.31
2019-04-03T05:53:46.851Z,98624.86
2019-04-03T05:56:19.610Z,98632.27
2019-04-03T05:58:56.702Z,98632.17
2019-04-03T06:01:30.892Z,98634.03
2019-04-03T06:04:05.219Z,98630.39
2019-04-03T06:06:39.376Z,98626.98
2019-04-03T06:09:11.910Z,98625.69
2019-04-03T06:11:44.941Z,98632.19
2019-04-03T06:14:19.057Z,98636.23
2019-04-03T06:16:52.131Z,98635.45
2019-04-03T06:19:25.930Z,98634.38
2019-04-03T06:21:58.517Z,98637.56
2019-04-03T06:24:30.988Z,98635.21
2019-04-03T06:27:04.997Z,98635.11
2019-04-03T06:29:38.156Z,98634.12
2019-04-03T06:32:12.721Z,98634.40
2019-04-03T06:34:46.586Z,98637.93
2019-04-03T06:37:20.166Z,98640.40
2019-04-03T06:39:54.176Z,98640.88
2019-04-03T06:42:28.594Z,98642.14
2019-04-03T06:45:03.343Z,98645.28
2019-04-03T06:47:36.040Z,98645.16
2019-04-03T06:50:10.357Z,98650.30
2019-04-03T06:52:45.315Z,98648.89
2019-04-03T06:55:20.584Z,98647.03
2019-04-03T06:57:53.622Z,98644.20
2019-04-03T07:00:26.776Z,98647.05
2019-04-03T07:03:01.500Z,98646.22
2019-04-03T07:05:37.417Z,98645.33
2019-04-03T07:08:10.012Z,98643.67
2019-04-03T07:10:54.218Z,98647.28
2019-04-03T07:13:29.457Z,98647.68
2019-04-03T07:16:06.325Z,98647.05
2019-04-03T07:18:40.404Z,98644.06
2019-04-03T07:21:14.437Z,98648.58
2019-04-03T07:23:50.386Z,98653.63
2019-04-03T07:26:23.549Z,98654.47
2019-04-03T07:28:57.779Z,98650.06
2019-04-03T07:31:33.859Z,98651.30
2019-04-03T07:34:11.904Z,98652.55
2019-04-03T07:36:46.340Z,98654.25
2019-04-03T07:39:28.667Z,98650.45
2019-04-03T07:42:01.206Z,98642.02
2019-04-03T07:44:34.185Z,98636.31
2019-04-03T07:47:06.810Z,98633.36
2019-04-03T07:49:40.700Z,98636.33
2019-04-03T07:52:16.793Z,98641.88
2019-04-03T07:54:51.876Z,98631.61
2019-04-03T07:57:28.110Z,98631.14
2019-04-03T08:00:06.195Z,98636.76
2019-04-03T08:02:39.761Z,98634.83
2019-04-03T08:05:15.620Z,98628.66
2019-04-03T08:07:48.676Z,98615.30
2019-04-03T08:10:22.338Z,98600.66
2019-04-03T08:13:05.030Z,98599.06
2019-04-03T08:15:39.067Z,98602.96
2019-04-03T08:18:11.977Z,98607.06
2019-04-03T08:20:48.990Z,98616.77
2019-04-03T08:23:22.346Z,98609.97
2019-04-03T08:25:58.117Z,98596.64
2019-04-03T08:28:31.059Z,98590.69
2019-04-03T08:31:03.807Z,98598.89
2019-04-03T08:33:38.081Z,98608.36
2019-04-03T08:36:22.536Z,98612.91
2019-04-03T08:38:58.874Z,98621.39
2019-04-03T08:41:36.447Z,98613.80
2019-04-03T08:44:11.106Z,98607.78
2019-04-03T08:46:47.511Z,98597.83
2019-04-03T08:49:21.358Z,98596.25
2019-04-03T08:51:54.850Z,98597.75
2019-04-03T08:54:27.315Z,98607.02
2019-04-03T08:57:02.447Z,98607.39
2019-04-03T08:59:35.143Z,98604.93
2019-04-03T09:02:12.738Z,98606.81
2019-04-03T09:04:48.786Z,98603.66
2019-04-03T09:07:24.926Z,98609.28
2019-04-03T09:10:07.812Z,98608.22
2019-04-03T09:12:45.389Z,98608.42
2019-04-03T09:15:20.542Z,98611.64
2019-04-03T09:17:55.482Z,98613.80
2019-04-03T09:20:29.191Z,98621.44
2019-04-03T09:23:02.106Z,98619.15
2019-04-03T09:25:35.047Z,98622.99
2019-04-03T09:28:22.859Z,98624.59
2019-04-03T09:30:57.056Z,98630.62
2019-04-03T09:33:30.574Z,98631.72
2019-04-03T09:36:04.418Z,98626.97
2019-04-03T09:38:40.649Z,98628.13
2019-04-03T09:41:14.301Z,98632.61
2019-04-03T09:43:47.042Z,98635.44
2019-04-03T09:46:19.762Z,98642.51
2019-04-03T09:48:52.442Z,98631.78
2019-04-03T09:51:25.249Z,98620.18
2019-04-03T09:53:58.342Z,98612.98
2019-04-03T09:56:31.861Z,98625.42
2019-04-03T09:59:06.666Z,98628.28
2019-04-03T10:01:42.255Z,98618.96
2019-04-03T10:04:15.352Z,98611.89
2019-04-03T10:06:47.973Z,98607.92
2019-04-03T10:09:21.206Z,98599.70
2019-04-03T10:11:55.799Z,98589.20
2019-04-03T10:14:28.973Z,98586.71
2019-04-03T10:17:01.515Z,98589.20
2019-04-03T10:19:35.671Z,98583.36
2019-04-03T10:22:11.893Z,98578.53
2019-04-03T10:24:45.930Z,98565.98
2019-04-03T10:27:19.114Z,98566.56
2019-04-03T10:30:00.043Z,98579.34
2019-04-03T10:32:45.094Z,98575.37
2019-04-03T10:35:18.484Z,98580.98
2019-04-03T10:37:52.159Z,98577.73
2019-04-03T10:40:26.919Z,98571.13
2019-04-03T10:43:02.825Z,98572.92
2019-04-03T10:45:40.931Z,98562.85
2019-04-03T10:48:17.140Z,98565.03
2019-04-03T10:50:49.871Z,98568.77
2019-04-03T10:53:25.775Z,98574.06
2019-04-03T10:55:59.846Z,98580.95
2019-04-03T10:58:34.519Z,98574.73
2019-04-03T11:01:07.544Z,98562.48
2019-04-03T11:03:40.153Z,98560.00
2019-04-03T11:06:13.439Z,98551.30
2019-04-03T11:08:47.755Z,98551.38
2019-04-03T11:11:20.898Z,98539.55
2019-04-03T11:13:55.499Z,98533.53
2019-04-03T11:16:29.993Z,98520.91
2019-04-03T11:19:06.767Z,98529.61
2019-04-03T11:21:43.251Z,98539.08
2019-04-03T11:24:19.210Z,98543.05
2019-04-03T11:26:54.850Z,98535.33
2019-04-03T11:29:28.266Z,98536.28
2019-04-03T11:32:01.064Z,98542.72
2019-04-03T11:34:36.290Z,98549.77
2019-04-03T11:37:10.095Z,98542.53
2019-04-03T11:39:45.645Z,98548.11
2019-04-03T11:42:24.907Z,98541.73
2019-04-03T11:45:03.502Z,98538.80
2019-04-03T11:47:39.239Z,98533.95
2019-04-03T11:50:14.416Z,98527.64
2019-04-03T11:52:47.586Z,98520.49
2019-04-03T11:55:21.093Z,98509.36
2019-04-03T11:57:55.183Z,98517.64
2019-04-03T12:00:32.137Z,98510.33
2019-04-03T12:03:06.643Z,98504.39
2019-04-03T12:05:41.634Z,98495.66
2019-04-03T12:08:15.510Z,98485.06
2019-04-03T12:10:48.805Z,98499.32
2019-04-03T12:13:29.913Z,98507.31
2019-04-03T12:16:04.390Z,98506.20
2019-04-03T12:18:39.742Z,98504.48
2019-04-03T12:21:14.370Z,98514.92
2019-04-03T12:23:58.524Z,98523.27
2019-04-03T12:26:55.916Z,98524.19
2019-04-03T12:29:34.680Z,98525.61
2019-04-03T12:32:10.315Z,98514.22
2019-04-03T12:34:43.124Z,98523.34
2019-04-03T12:37:19.593Z,98524.95
2019-04-03T12:39:56.236Z,98518.39
2019-04-03T12:42:33.138Z,98524.28
2019-04-03T12:45:09.485Z,98517.13
2019-04-03T12:47:50.965Z,98516.54
2019-04-03T12:50:29.252Z,98520.47
2019-04-03T12:53:03.409Z,98516.12
2019-04-03T12:55:36.342Z,98505.25
2019-04-03T12:58:17.203Z,98503.56
2019-04-03T13:00:50.480Z,98499.96
2019-04-03T13:03:25.685Z,98490.58
2019-04-03T13:05:59.633Z,98487.27
2019-04-03T13:08:32.990Z,98480.27
2019-04-03T13:11:06.497Z,98471.98
2019-04-03T13:13:41.295Z,98465.41
2019-04-03T13:16:15.826Z,98456.87
2019-04-03T13:18:49.518Z,98454.37
2019-04-03T13:21:22.939Z,98451.80
2019-04-03T13:23:59.874Z,98449.33
2019-04-03T13:26:34.166Z,98452.36
2019-04-03T13:29:08.927Z,98446.78
2019-04-03T13:31:50.601Z,98449.98
2019-04-03T13:34:36.196Z,98446.59
2019-04-03T13:37:09.998Z,98441.98
2019-04-03T13:39:45.149Z,98433.72
2019-04-03T13:42:17.988Z,98433.74
2019-04-03T13:44:53.100Z,98443.72
2019-04-03T13:47:26.263Z,98444.58
2019-04-03T13:50:03.315Z,98435.69
2019-04-03T13:52:43.052Z,98436.31
2019-04-03T13:55:23.508Z,98435.20
2019-04-03T13:57:56.895Z,98447.52
2019-04-03T14:00:33.825Z,98448.09
2019-04-03T14:03:13.152Z,98447.27
2019-04-03T14:05:49.453Z,98436.89
2019-04-03T14:08:22.231Z,98434.82
2019-04-03T14:11:00.390Z,98429.36
2019-04-03T14:13:42.577Z,98421.83
2019-04-03T14:16:21.741Z,98431.32
2019-04-03T14:18:57.839Z,98416.46
2019-04-03T14:21:30.714Z,98419.36
2019-04-03T14:24:03.780Z,98419.97
2019-04-03T14:26:39.294Z,98424.13
2019-04-03T14:29:13.744Z,98424.08
2019-04-03T14:31:48.554Z,98424.79
2019-04-03T14:34:24.577Z,98425.27
2019-04-03T14:36:58.336Z,98431.69
2019-04-03T14:39:39.252Z,98436.55
2019-04-03T14:42:15.218Z,98444.08
2019-04-03T14:44:51.280Z,98444.13
2019-04-03T14:47:27.917Z,98438.47
2019-04-03T14:50:05.382Z,98439.20
2019-04-03T14:52:44.128Z,98434.94
2019-04-03T14:55:24.350Z,98434.83
2019-04-03T14:57:57.682Z,98425.53
2019-04-03T15:00:33.225Z,98420.48
2019-04-03T15:03:13.849Z,98411.06
2019-04-03T15:05:47.024Z,98419.53
2019-04-03T15:08:22.835Z,98413.37
2019-04-03T15:10:57.018Z,98411.90
2019-04-03T15:13:30.796Z,98413.30
2019-04-03T15:16:06.296Z,98412.11
2019-04-03T15:18:54.686Z,98406.16
2019-04-03T15:21:32.338Z,98410.96
2019-04-03T15:24:11.383Z,98397.39
2019-04-03T15:26:46.999Z,98413.19
2019-04-03T15:29:19.737Z,98422.54
2019-04-03T15:31:53.938Z,98418.97
2019-04-03T15:34:30.188Z,98416.98
2019-04-03T15:37:04.251Z,98426.02
2019-04-03T15:39:41.748Z,98431.76
2019-04-03T15:42:20.926Z,98431.39
2019-04-03T15:45:00.987Z,98424.92
2019-04-03T15:47:55.257Z,98428.58
2019-04-03T15:50:33.400Z,98433.07
2019-04-03T15:53:14.199Z,98431.52
2019-04-03T15:55:48.037Z,98426.19
2019-04-03T15:58:27.174Z,98423.97
2019-04-03T16:01:09.253Z,98421.62
2019-04-03T16:03:44.291Z,98410.64
2019-04-03T16:06:26.640Z,98404.37
2019-04-03T16:09:01.297Z,98409.16
2019-04-03T16:11:38.081Z,98404.83
2019-04-03T16:14:12.482Z,98399.50
2019-04-03T16:16:48.418Z,98401.30
2019-04-03T16:19:24.710Z,98396.47
2019-04-03T16:21:59.106Z,98398.24
2019-04-03T16:24:32.433Z,98394.95
2019-04-03T16:27:07.323Z,98404.39
2019-04-03T16:29:41.914Z,98401.16
2019-04-03T16:32:15.420Z,98390.12
2019-04-03T16:34:50.705Z,98394.05
2019-04-03T16:37:23.489Z,98397.53
2019-04-03T16:39:57.957Z,98391.73
2019-04-03T16:42:33.714Z,98388.75
2019-04-03T16:45:12.009Z,98388.59
2019-04-03T16:47:50.475Z,98384.48
2019-04-03T16:50:27.449Z,98374.25
2019-04-03T16:53:01.803Z,98365.84
2019-04-03T16:55:35.686Z,98363.33
2019-04-03T16:58:15.767Z,98366.58
2019-04-03T17:00:54.176Z,98365.05
2019-04-03T17:03:31.754Z,98378.05
2019-04-03T17:06:07.938Z,98384.61
2019-04-03T17:08:45.341Z,98392.99
2019-04-03T17:11:22.623Z,98404.48
2019-04-03T17:13:57.452Z,98406.26
2019-04-03T17:16:37.369Z,98401.27
2019-04-03T17:19:12.307Z,98397.84
2019-04-03T17:21:47.164Z,98397.14
2019-04-03T17:24:43.639Z,98387.30
2019-04-03T17:27:24.956Z,98396.03
2019-04-03T17:29:58.761Z,98388.87
2019-04-03T17:32:35.462Z,98387.41
2019-04-03T17:35:09.939Z,98371.28
2019-04-03T17:37:43.647Z,98382.27
2019-04-03T17:40:18.787Z,98389.44
2019-04-03T17:42:51.468Z,98392.48
2019-04-03T17:45:24.746Z,98383.38
2019-04-03T17:47:58.838Z,98385.29
2019-04-03T17:50:31.648Z,98378.50
2019-04-03T17:53:12.793Z,98377.36
2019-04-03T17:55:46.012Z,98386.60
2019-04-03T17:58:24.380Z,98411.52
2019-04-03T18:00:59.014Z,98424.05
2019-04-03T18:03:35.113Z,98436.13
2019-04-03T18:06:08.915Z,98437.84
2019-04-03T18:08:44.588Z,98439.44
2019-04-03T18:11:18.138Z,98431.41
2019-04-03T18:13:52.982Z,98430.41
2019-04-03T18:16:30.394Z,98423.38
2019-04-03T18:19:04.937Z,98413.76
2019-04-03T18:21:39.498Z,98422.61
2019-04-03T18:24:13.430Z,98425.86
2019-04-03T18:26:47.927Z,98412.81
2019-04-03T18:29:24.324Z,98401.37
2019-04-03T18:31:59.069Z,98404.48
2019-04-03T18:34:31.964Z,98419.56
2019-04-03T18:37:18.125Z,98420.64
2019-04-03T18:39:51.504Z,98412.97
2019-04-03T18:42:24.468Z,98412.48
2019-04-03T18:44:59.195Z,98416.22
2019-04-03T18:47:41.121Z,98417.93
2019-04-03T18:50:17.246Z,98425.84
2019-04-03T18:52:52.812Z,98438.26
2019-04-03T18:55:26.698Z,98439.27
2019-04-03T18:57:59.377Z,98454.10
2019-04-03T19:00:34.301Z,98457.27
2019-04-03T19:03:11.207Z,98461.63
2019-04-03T19:05:46.410Z,98468.80
2019-04-03T19:08:19.136Z,98465.66
2019-04-03T19:11:02.121Z,98458.36
2019-04-03T19:13:36.691Z,98458.52
2019-04-03T19:16:10.710Z,98460.05
2019-04-03T19:18:46.665Z,98460.03
2019-04-03T19:21:28.463Z,98461.61
2019-04-03T19:24:03.908Z,98458.59
2019-04-03T19:26:37.457Z,98457.23
2019-04-03T19:29:10.318Z,98458.38
2019-04-03T19:31:43.955Z,98466.13
2019-04-03T19:34:19.897Z,98461.54
2019-04-03T19:36:55.227Z,98458.80
2019-04-03T19:39:29.163Z,98456.14
2019-04-03T19:42:04.625Z,98461.31
2019-04-03T19:44:41.583Z,98466.05
2019-04-03T19:47:16.778Z,98465.81
2019-04-03T19:50:00.866Z,98466.80
2019-04-03T19:52:37.094Z,98466.30
2019-04-03T19:55:12.121Z,98466.30
2019-04-03T19:57:45.741Z,98469.69
2019-04-03T20:00:27.563Z,98473.50
2019-04-03T20:03:00.778Z,98476.04
2019-04-03T20:05:34.516Z,98478.40
2019-04-03T20:08:08.153Z,98480.47
2019-04-03T20:10:40.926Z,98486.34
2019-04-03T20:13:15.933Z,98475.77
2019-04-03T20:15:48.569Z,98472.03
2019-04-03T20:18:21.322Z,98461.34
2019-04-03T20:20:59.446Z,98459.77
2019-04-03T20:23:35.038Z,98452.45
2019-04-03T20:26:12.517Z,98449.25
2019-04-03T20:28:44.964Z,98439.48
2019-04-03T20:31:17.694Z,98430.25
2019-04-03T20:33:50.872Z,98429.04
2019-04-03T20:36:23.909Z,98426.93
2019-04-03T20:38:58.286Z,98428.03
2019-04-03T20:41:34.654Z,98436.66
2019-04-03T20:44:09.896Z,98426.89
2019-04-03T20:46:42.599Z,98419.76
2019-04-03T20:49:15.155Z,98444.69
2019-04-03T20:51:48.819Z,98443.77
2019-04-03T20:54:24.148Z,98447.59
2019-04-03T20:57:01.952Z,98462.89
2019-04-03T20:59:37.226Z,98449.98
2019-04-03T21:02:10.766Z,98452.11
2019-04-03T21:04:48.739Z,98449.98
2019-04-03T21:07:25.699Z,98446.59
2019-04-03T21:10:01.571Z,98427.48
2019-04-03T21:12:36.441Z,98426.01
2019-04-03T21:15:18.663Z,98432.04
2019-04-03T21:17:52.950Z,98406.48
2019-04-03T21:20:27.124Z,98394.80
2019-04-03T21:23:03.640Z,98387.80
2019-04-03T21:25:40.711Z,98397.34
2019-04-03T21:28:13.787Z,98397.59
2019-04-03T21:30:46.979Z,98407.94
2019-04-03T21:33:19.979Z,98413.09
2019-04-03T21:35:52.576Z,98408.36
2019-04-03T21:38:25.738Z,98394.93
2019-04-03T21:40:58.330Z,98397.05
2019-04-03T21:43:30.938Z,98405.17
2019-04-03T21:46:04.978Z,98406.57
2019-04-03T21:48:37.748Z,98408.91
2019-04-03T21:51:10.281Z,98410.23
2019-04-03T21:53:43.656Z,98404.84
2019-04-03T21:56:16.503Z,98407.00
2019-04-03T21:58:50.197Z,98419.64
2019-04-03T22:01:25.475Z,98419.84
2019-04-03T22:03:58.075Z,98419.17
2019-04-03T22:06:30.674Z,98413.29
2019-04-03T22:09:11.411Z,98410.72
2019-04-03T22:11:44.070Z,98405.22
2019-04-03T22:14:16.784Z,98396.88
2019-04-03T22:16:50.796Z,98409.56
2019-04-03T22:19:27.435Z,98424.44
2019-04-03T22:22:01.045Z,98444.64
2019-04-03T22:24:37.753Z,98455.63
2019-04-03T22:27:12.122Z,98466.05
2019-04-03T22:29:46.446Z,98463.72
2019-04-03T22:32:20.700Z,98451.38
2019-04-03T22:34:53.383Z,98447.50
2019-04-03T22:37:27.750Z,98439.25
2019-04-03T22:40:04.440Z,98431.19
2019-04-03T22:42:37.005Z,98428.83
2019-04-03T22:45:09.770Z,98425.67
2019-04-03T22:47:47.416Z,98431.81
2019-04-03T22:50:24.843Z,98435.81
2019-04-03T22:52:58.281Z,98441.81
2019-04-03T22:55:32.539Z,98442.49
2019-04-03T22:58:05.954Z,98442.64
2019-04-03T23:00:41.242Z,98437.11
2019-04-03T23:03:14.144Z,98443.21
2019-04-03T23:05:48.513Z,98447.41
2019-04-03T23:08:22.781Z,98434.98
2019-04-03T23:11:00.695Z,98430.42
2019-04-03T23:13:35.753Z,98429.06
2019-04-03T23:16:09.606Z,98419.02
2019-04-03T23:18:46.853Z,98402.91
2019-04-03T23:21:23.525Z,98398.77
2019-04-03T23:23:58.444Z,98401.66
2019-04-03T23:26:32.827Z,98396.00
2019-04-03T23:29:06.520Z,98367.59
2019-04-03T23:31:39.146Z,98368.21
2019-04-03T23:34:13.302Z,98386.88
2019-04-03T23:36:47.670Z,98378.30
2019-04-03T23:39:20.966Z,98385.09
2019-04-03T23:41:57.479Z,98382.08
2019-04-03T23:44:30.065Z,98371.01
2019-04-03T23:47:02.739Z,98366.19
2019-04-03T23:49:36.790Z,98367.21
2019-04-03T23:52:09.456Z,98367.64
2019-04-03T23:54:42.036Z,98363.17
2019-04-03T23:57:17.080Z,98365.85
2019-04-03T23:59:49.616Z,98368.28
